»·PEaware :: WAT605 KPHX-KLAS

WAT605 :: KPHX-KLAS

FLIGHT INFORMATION

Flight Status: Arrived
Operator:
Walker Air Transport
More flights by this operator :: More flights under this callsign
Pilot: Kaleb W. (11686)
Aircraft: BOEING 737-800
(B738)
More flights by this aircraft type
Origin: KPHX Phoenix Sky Harbor Intl
United States
Destination: KLAS Harry Reid Intl
United States
More flights between these airports :: More routes between these airports
Route: ZEPER2 RRSTA ELLDA RKSTR1
File this flight plan on PilotEdge
Remarks: RMK / SIMBRIEF
Altitude:
(Current/Filed)
28,000ft
Speed:
(Current/Filed)
433kts
Departed: 23-Feb-22 05:21 PM
Arrived: 23-Feb-22 06:05 PM
Distance/Time
Traveled:
222nm/0:44
Distance/Time
To Go:
Arrived

Flight Plot

Page will automatically refresh every two minutes.

Flight plan parsing failed; only flown route is shown


Map Options




Map Legend


Flown Route
Filed Route
Departure Airport
Arrival Airport
Navaid (VOR, NDB)
Fix

Horizontal Profiles

Position Reports

Time Latitude Longitude Heading Altitude Ground
Speed
23-Feb-22 16:52 33.437335 -112.008160 270 1140ft 0kts
23-Feb-22 16:53 33.437335 -112.008160 270 1140ft 0kts
23-Feb-22 16:54 33.437335 -112.008160 270 1140ft 0kts
23-Feb-22 16:55 33.437335 -112.008160 270 1140ft 0kts
23-Feb-22 16:56 33.437335 -112.008159 270 1140ft 0kts
23-Feb-22 16:57 33.437335 -112.008159 270 1140ft 0kts
23-Feb-22 16:58 33.437335 -112.008159 270 1140ft 0kts
23-Feb-22 16:59 33.437335 -112.008159 270 1140ft 0kts
23-Feb-22 17:00 33.437335 -112.008159 270 1140ft 0kts
23-Feb-22 17:01 33.437335 -112.008159 270 1140ft 0kts
23-Feb-22 17:02 33.437335 -112.008159 270 1140ft 0kts
23-Feb-22 17:03 33.437335 -112.008159 270 1140ft 0kts
23-Feb-22 17:04 33.437335 -112.008159 270 1140ft 0kts
23-Feb-22 17:05 33.437335 -112.008159 270 1140ft 0kts
23-Feb-22 17:06 33.437335 -112.008159 270 1140ft 0kts
23-Feb-22 17:07 33.437319 -112.007666 293 1140ft 2kts
23-Feb-22 17:08 33.436927 -112.007369 1 1140ft 1kts
23-Feb-22 17:09 33.436915 -112.007370 0 1140ft 0kts
23-Feb-22 17:10 33.436915 -112.007370 0 1140ft 0kts
23-Feb-22 17:11 33.436915 -112.007370 0 1140ft 0kts
23-Feb-22 17:12 33.437548 -112.007370 359 1140ft 9kts
23-Feb-22 17:13 33.437675 -112.007371 359 1140ft 0kts
23-Feb-22 17:14 33.438042 -112.007375 359 1140ft 5kts
23-Feb-22 17:15 33.439711 -112.009104 270 1140ft 14kts
23-Feb-22 17:16 33.439708 -112.015259 269 1140ft 21kts
23-Feb-22 17:17 33.439734 -112.023137 269 1140ft 25kts
23-Feb-22 17:18 33.439941 -112.029531 320 1140ft 10kts
23-Feb-22 17:19 33.440837 -112.029228 86 1140ft 6kts
23-Feb-22 17:20 33.440642 -112.002612 92 1381ft 185kts
23-Feb-22 17:21 33.438381 -111.935531 95 3551ft 242kts
23-Feb-22 17:22 33.446135 -111.849533 42 6547ft 287kts
23-Feb-22 17:23 33.522609 -111.830385 354 9885ft 294kts
23-Feb-22 17:24 33.613024 -111.834669 353 11702ft 356kts
23-Feb-22 17:25 33.711088 -111.848986 335 14585ft 361kts
23-Feb-22 17:26 33.780710 -111.926356 299 17333ft 347kts
23-Feb-22 17:27 33.838117 -112.021691 299 19816ft 357kts
23-Feb-22 17:28 33.897183 -112.118968 299 22048ft 365kts
23-Feb-22 17:29 33.957784 -112.218938 299 24030ft 374kts
23-Feb-22 17:30 34.021034 -112.320288 303 25813ft 387kts
23-Feb-22 17:31 34.102886 -112.409337 311 27437ft 402kts
23-Feb-22 17:32 34.189861 -112.497427 311 27895ft 413kts
23-Feb-22 17:33 34.277663 -112.586083 311 27880ft 411kts
23-Feb-22 17:34 34.365445 -112.674969 311 27880ft 411kts
23-Feb-22 17:35 34.452876 -112.763772 311 27881ft 411kts
23-Feb-22 17:36 34.540215 -112.852669 312 27880ft 407kts
23-Feb-22 17:37 34.626255 -112.940485 313 27881ft 402kts
23-Feb-22 17:38 34.711168 -113.027415 313 27881ft 399kts
23-Feb-22 17:39 34.786179 -113.123649 304 27891ft 392kts
23-Feb-22 17:40 34.854815 -113.227091 304 27907ft 392kts
23-Feb-22 17:41 34.922694 -113.331083 304 27917ft 395kts
23-Feb-22 17:42 34.998804 -113.429858 316 27918ft 407kts
23-Feb-22 17:43 35.088103 -113.515825 318 27917ft 411kts
23-Feb-22 17:44 35.177894 -113.600677 318 27917ft 410kts
23-Feb-22 17:45 35.268474 -113.686264 318 27917ft 410kts
23-Feb-22 17:46 35.358346 -113.771449 318 27917ft 410kts
23-Feb-22 17:47 35.447221 -113.855728 318 26411ft 402kts
23-Feb-22 17:48 35.529370 -113.933789 318 24104ft 353kts
23-Feb-22 17:49 35.606858 -114.007816 319 22133ft 348kts
23-Feb-22 17:50 35.681528 -114.079248 319 20252ft 336kts
23-Feb-22 17:51 35.753308 -114.152810 310 18374ft 331kts
23-Feb-22 17:52 35.800245 -114.247069 298 16623ft 324kts
23-Feb-22 17:53 35.844031 -114.342066 305 14799ft 315kts
23-Feb-22 17:54 35.896409 -114.426930 307 13000ft 307kts
23-Feb-22 17:55 35.947767 -114.509262 308 11249ft 300kts
23-Feb-22 17:56 35.995523 -114.591254 306 10051ft 277kts
23-Feb-22 17:57 36.038163 -114.665974 306 9052ft 273kts
23-Feb-22 17:58 36.072748 -114.746298 275 7850ft 267kts
23-Feb-22 17:59 36.073198 -114.838881 271 6493ft 268kts
23-Feb-22 18:00 36.073405 -114.929944 271 5193ft 233kts
23-Feb-22 18:01 36.073525 -115.003790 272 3770ft 185kts
23-Feb-22 18:02 36.073591 -115.060659 274 3110ft 153kts
23-Feb-22 18:03 36.073558 -115.112411 275 2305ft 145kts
23-Feb-22 18:04 36.073727 -115.146783 272 2108ft 33kts
23-Feb-22 18:05 36.074625 -115.150328 299 2120ft 0kts
23-Feb-22 18:06 36.076473 -115.151999 334 2123ft 14kts
23-Feb-22 18:07 36.078067 -115.148389 46 2107ft 17kts
23-Feb-22 18:08 36.080299 -115.147291 61 2098ft 0kts
23-Feb-22 18:09 36.080299 -115.147291 61 2098ft 0kts
23-Feb-22 18:10 36.080299 -115.147291 61 2098ft 0kts

Navigation Log

Ident Type
Flight plan parsing failed, navigation log unavailable